createdAt,value
2022-09-15T00:00:19.499Z,27.06
2022-09-15T00:01:21.303Z,27.10
2022-09-15T00:02:23.059Z,27.08
2022-09-15T00:03:25.008Z,27.10
2022-09-15T00:04:26.571Z,27.12
2022-09-15T00:05:28.134Z,27.10
2022-09-15T00:06:29.704Z,27.07
2022-09-15T00:07:31.475Z,27.07
2022-09-15T00:08:33.013Z,27.08
2022-09-15T00:09:35.785Z,27.07
2022-09-15T00:10:37.371Z,27.06
2022-09-15T00:11:39.301Z,27.09
2022-09-15T00:12:40.897Z,27.11
2022-09-15T00:13:42.438Z,27.11
2022-09-15T00:14:43.983Z,27.08
2022-09-15T00:15:46.267Z,27.08
2022-09-15T00:16:47.862Z,27.05
2022-09-15T00:17:51.931Z,27.04
2022-09-15T00:18:53.534Z,27.05
2022-09-15T00:19:55.302Z,27.06
2022-09-15T00:20:57.014Z,27.06
2022-09-15T00:21:58.672Z,27.06
2022-09-15T00:23:00.165Z,27.09
2022-09-15T00:24:02.475Z,27.10
2022-09-15T00:25:04.808Z,27.07
2022-09-15T00:26:09.077Z,27.04
2022-09-15T00:27:10.608Z,26.99
2022-09-15T00:28:13.078Z,27.00
2022-09-15T00:29:14.712Z,27.00
2022-09-15T00:30:16.363Z,26.95
2022-09-15T00:31:21.481Z,26.86
2022-09-15T00:32:23.073Z,26.88
2022-09-15T00:33:24.851Z,26.92
2022-09-15T00:34:26.359Z,26.95
2022-09-15T00:35:27.864Z,26.96
2022-09-15T00:36:29.818Z,26.98
2022-09-15T00:37:31.571Z,26.99
2022-09-15T00:38:34.891Z,27.00
2022-09-15T00:39:36.597Z,27.01
2022-09-15T00:41:05.349Z,26.95
2022-09-15T00:42:07.128Z,27.02
2022-09-15T00:43:10.822Z,26.94
2022-09-15T00:44:36.821Z,26.86
2022-09-15T00:45:38.541Z,26.88
2022-09-15T00:46:42.717Z,26.87
2022-09-15T00:47:44.570Z,26.86
2022-09-15T00:48:58.650Z,26.85
2022-09-15T00:50:08.399Z,26.88
2022-09-15T00:51:13.020Z,26.85
2022-09-15T00:52:20.615Z,26.84
2022-09-15T00:53:23.757Z,26.83
2022-09-15T00:54:36.845Z,26.77
2022-09-15T00:55:44.263Z,26.81
2022-09-15T00:56:49.246Z,26.84
2022-09-15T00:58:06.865Z,26.80
2022-09-15T00:59:15.045Z,26.84
2022-09-15T01:00:20.478Z,26.86
2022-09-15T01:01:25.786Z,26.83
2022-09-15T01:02:33.077Z,26.85
2022-09-15T01:03:36.820Z,26.87
2022-09-15T01:04:38.397Z,26.86
2022-09-15T01:05:46.203Z,26.82
2022-09-15T01:06:52.436Z,26.84
2022-09-15T01:08:00.646Z,26.82
2022-09-15T01:09:04.729Z,26.86
2022-09-15T01:10:13.055Z,26.85
2022-09-15T01:11:17.078Z,26.85
2022-09-15T01:12:19.374Z,26.82
2022-09-15T01:13:20.932Z,26.86
2022-09-15T01:14:22.584Z,26.85
2022-09-15T01:15:32.056Z,26.80
2022-09-15T01:16:37.026Z,26.78
2022-09-15T01:17:41.622Z,26.79
2022-09-15T01:19:01.305Z,26.78
2022-09-15T01:20:27.063Z,26.76
2022-09-15T01:21:44.916Z,26.78
2022-09-15T01:22:49.054Z,26.81
2022-09-15T01:24:19.068Z,26.71
2022-09-15T01:25:45.096Z,26.73
2022-09-15T01:27:24.438Z,26.75
2022-09-15T01:29:04.486Z,26.73
2022-09-15T01:30:09.020Z,26.76
2022-09-15T01:31:34.964Z,26.71
2022-09-15T01:33:05.832Z,26.73
2022-09-15T01:34:16.135Z,26.74
2022-09-15T01:35:32.763Z,26.71
2022-09-15T01:36:44.222Z,26.73
2022-09-15T01:37:53.511Z,26.71
2022-09-15T01:39:02.327Z,26.68
2022-09-15T01:40:05.302Z,26.74
2022-09-15T01:41:17.210Z,26.70
2022-09-15T01:42:20.011Z,26.71
2022-09-15T01:43:25.249Z,26.69
2022-09-15T01:44:33.213Z,26.69
2022-09-15T01:45:37.621Z,26.69
2022-09-15T01:46:52.315Z,26.63
2022-09-15T01:47:57.859Z,26.67
2022-09-15T01:49:02.147Z,26.66
2022-09-15T01:50:09.663Z,26.68
2022-09-15T01:51:11.611Z,26.68
2022-09-15T01:52:17.219Z,26.68
2022-09-15T01:53:20.969Z,26.68
2022-09-15T01:54:27.612Z,26.66
2022-09-15T01:55:40.877Z,26.65
2022-09-15T01:56:42.838Z,26.68
2022-09-15T01:57:45.524Z,26.62
2022-09-15T01:58:49.761Z,26.58
2022-09-15T01:59:54.512Z,26.58
2022-09-15T02:01:44.869Z,26.52
2022-09-15T02:02:57.759Z,26.52
2022-09-15T02:04:18.309Z,26.48
2022-09-15T02:05:41.430Z,26.55
2022-09-15T02:06:56.025Z,26.57
2022-09-15T02:08:06.661Z,26.57
2022-09-15T02:09:12.830Z,26.49
2022-09-15T02:10:41.167Z,26.46
2022-09-15T02:11:58.793Z,26.50
2022-09-15T02:13:17.069Z,26.56
2022-09-15T02:14:35.300Z,26.52
2022-09-15T02:15:53.882Z,26.41
2022-09-15T02:16:56.096Z,26.43
2022-09-15T02:17:59.186Z,26.42
2022-09-15T02:19:19.738Z,26.41
2022-09-15T02:20:33.351Z,26.40
2022-09-15T02:21:53.676Z,26.29
2022-09-15T02:23:00.811Z,26.03
2022-09-15T02:24:11.030Z,26.12
2022-09-15T02:25:17.645Z,26.26
2022-09-15T02:26:24.532Z,26.34
2022-09-15T02:27:31.757Z,26.36
2022-09-15T02:28:38.811Z,26.37
2022-09-15T02:29:43.675Z,26.45
2022-09-15T02:30:46.762Z,26.47
2022-09-15T02:31:52.590Z,26.47
2022-09-15T02:33:02.774Z,26.38
2022-09-15T02:34:19.646Z,26.43
2022-09-15T02:35:21.815Z,26.46
2022-09-15T02:36:25.368Z,26.48
2022-09-15T02:37:27.682Z,26.50
2022-09-15T02:38:34.875Z,26.49
2022-09-15T02:39:40.023Z,26.53
2022-09-15T02:40:43.789Z,26.54
2022-09-15T02:41:46.147Z,26.55
2022-09-15T02:42:56.747Z,26.44
2022-09-15T02:43:58.284Z,26.37
2022-09-15T02:45:00.933Z,26.32
2022-09-15T02:46:02.663Z,26.31
2022-09-15T02:47:04.370Z,26.33
2022-09-15T02:48:06.853Z,26.35
2022-09-15T02:49:08.389Z,26.40
2022-09-15T02:50:09.902Z,26.43
2022-09-15T02:51:11.722Z,26.42
2022-09-15T02:52:13.447Z,26.47
2022-09-15T02:53:15.047Z,26.47
2022-09-15T02:54:16.710Z,26.42
2022-09-15T02:55:18.304Z,26.40
2022-09-15T02:56:20.110Z,26.42
2022-09-15T02:57:21.695Z,26.45
2022-09-15T02:58:23.811Z,26.45
2022-09-15T02:59:25.416Z,26.46
2022-09-15T03:00:28.486Z,26.49
2022-09-15T03:01:34.950Z,26.46
2022-09-15T03:02:36.951Z,26.48
2022-09-15T03:03:42.782Z,26.49
2022-09-15T03:04:44.592Z,26.51
2022-09-15T03:05:46.159Z,26.46
2022-09-15T03:06:47.755Z,26.45
2022-09-15T03:07:49.585Z,26.37
2022-09-15T03:08:56.311Z,26.39
2022-09-15T03:09:58.436Z,26.41
2022-09-15T03:10:59.954Z,26.41
2022-09-15T03:12:01.617Z,26.43
2022-09-15T03:13:03.639Z,26.44
2022-09-15T03:14:06.774Z,26.42
2022-09-15T03:15:10.456Z,26.41
2022-09-15T03:16:14.282Z,26.42
2022-09-15T03:17:16.461Z,26.38
2022-09-15T03:18:18.003Z,26.39
2022-09-15T03:19:19.543Z,26.37
2022-09-15T03:20:28.162Z,26.38
2022-09-15T03:21:30.652Z,26.40
2022-09-15T03:22:32.392Z,26.37
2022-09-15T03:23:34.242Z,26.37
2022-09-15T03:24:36.210Z,26.39
2022-09-15T03:25:37.728Z,26.40
2022-09-15T03:26:39.284Z,26.38
2022-09-15T03:27:40.837Z,26.37
2022-09-15T03:28:42.438Z,26.39
2022-09-15T03:29:44.105Z,26.38
2022-09-15T03:30:45.775Z,26.38
2022-09-15T03:31:47.426Z,26.40
2022-09-15T03:32:49.109Z,26.39
2022-09-15T03:33:50.717Z,26.40
2022-09-15T03:34:55.264Z,26.37
2022-09-15T03:36:00.003Z,26.30
2022-09-15T03:37:01.735Z,26.29
2022-09-15T03:38:03.269Z,26.33
2022-09-15T03:39:04.870Z,26.29
2022-09-15T03:40:07.186Z,26.30
2022-09-15T03:41:11.469Z,26.30
2022-09-15T03:42:13.036Z,26.30
2022-09-15T03:43:18.640Z,26.31
2022-09-15T03:44:20.370Z,26.35
2022-09-15T03:45:21.894Z,26.31
2022-09-15T03:46:23.506Z,26.29
2022-09-15T03:47:25.306Z,26.29
2022-09-15T03:48:28.460Z,26.30
2022-09-15T03:49:30.266Z,26.31
2022-09-15T03:50:33.203Z,26.28
2022-09-15T03:51:34.718Z,26.20
2022-09-15T03:52:36.315Z,26.18
2022-09-15T03:53:39.763Z,26.20
2022-09-15T03:54:42.104Z,26.22
2022-09-15T03:55:45.412Z,26.22
2022-09-15T03:56:49.011Z,26.22
2022-09-15T03:57:50.575Z,26.23
2022-09-15T03:58:53.367Z,26.25
2022-09-15T03:59:54.928Z,26.09
2022-09-15T04:00:57.050Z,26.05
2022-09-15T04:01:58.745Z,26.14
2022-09-15T04:03:00.341Z,26.19
2022-09-15T04:04:02.092Z,26.21
2022-09-15T04:05:03.826Z,26.25
2022-09-15T04:06:05.588Z,26.24
2022-09-15T04:07:08.825Z,26.22
2022-09-15T04:08:13.084Z,26.22
2022-09-15T04:09:14.726Z,26.25
2022-09-15T04:10:16.653Z,26.27
2022-09-15T04:11:19.818Z,26.29
2022-09-15T04:12:21.461Z,26.26
2022-09-15T04:13:28.456Z,26.27
2022-09-15T04:14:30.414Z,26.25
2022-09-15T04:15:31.966Z,26.26
2022-09-15T04:16:34.051Z,26.21
2022-09-15T04:17:35.701Z,26.22
2022-09-15T04:18:37.272Z,26.26
2022-09-15T04:19:39.278Z,26.26
2022-09-15T04:20:40.927Z,26.27
2022-09-15T04:21:42.544Z,26.25
2022-09-15T04:22:45.087Z,26.24
2022-09-15T04:23:47.778Z,26.20
2022-09-15T04:24:49.790Z,26.18
2022-09-15T04:26:02.773Z,26.15
2022-09-15T04:27:04.500Z,26.14
2022-09-15T04:28:06.379Z,26.15
2022-09-15T04:29:13.722Z,26.16
2022-09-15T04:30:15.232Z,26.18
2022-09-15T04:31:18.058Z,26.19
2022-09-15T04:32:20.814Z,26.21
2022-09-15T04:33:22.662Z,26.18
2022-09-15T04:34:24.663Z,26.20
2022-09-15T04:35:26.303Z,26.19
2022-09-15T04:36:29.315Z,26.18
2022-09-15T04:37:31.832Z,26.22
2022-09-15T04:38:33.824Z,26.23
2022-09-15T04:39:35.365Z,26.21
2022-09-15T04:40:38.193Z,26.22
2022-09-15T04:41:39.800Z,26.14
2022-09-15T04:42:41.338Z,26.22
2022-09-15T04:43:43.413Z,26.29
2022-09-15T04:44:44.959Z,26.32
2022-09-15T04:45:46.500Z,26.34
2022-09-15T04:46:48.817Z,26.32
2022-09-15T04:47:51.650Z,26.41
2022-09-15T04:48:54.006Z,26.46
2022-09-15T04:49:55.610Z,26.49
2022-09-15T04:51:09.007Z,26.53
2022-09-15T04:52:10.733Z,26.59
2022-09-15T04:53:12.412Z,26.62
2022-09-15T04:54:14.105Z,26.70
2022-09-15T04:55:15.641Z,26.77
2022-09-15T04:56:23.229Z,26.81
2022-09-15T04:57:24.808Z,26.88
2022-09-15T04:58:26.359Z,26.88
2022-09-15T04:59:27.894Z,26.92
2022-09-15T05:00:30.522Z,26.89
2022-09-15T05:01:34.749Z,26.93
2022-09-15T05:02:36.382Z,26.92
2022-09-15T05:03:38.436Z,26.96
2022-09-15T05:04:40.072Z,27.04
2022-09-15T05:05:41.833Z,27.11
2022-09-15T05:06:43.394Z,27.14
2022-09-15T05:07:45.699Z,27.13
2022-09-15T05:08:48.692Z,27.13
2022-09-15T05:09:50.248Z,27.08
2022-09-15T05:10:51.810Z,27.13
2022-09-15T05:11:53.366Z,27.13
2022-09-15T05:12:54.876Z,27.22
2022-09-15T05:13:56.828Z,27.31
2022-09-15T05:14:58.377Z,27.29
2022-09-15T05:16:07.338Z,27.37
2022-09-15T05:17:08.931Z,27.40
2022-09-15T05:18:10.433Z,27.42
2022-09-15T05:19:12.164Z,27.40
2022-09-15T05:20:13.678Z,27.41
2022-09-15T05:21:18.461Z,27.44
2022-09-15T05:22:20.322Z,27.52
2022-09-15T05:23:21.858Z,27.61
2022-09-15T05:24:23.547Z,27.59
2022-09-15T05:25:25.136Z,27.65
2022-09-15T05:26:29.276Z,27.68
2022-09-15T05:27:32.746Z,27.73
2022-09-15T05:28:36.241Z,27.71
2022-09-15T05:29:37.785Z,27.79
2022-09-15T05:30:44.104Z,27.76
2022-09-15T05:31:46.101Z,27.71
2022-09-15T05:32:47.648Z,27.73
2022-09-15T05:33:50.552Z,27.76
2022-09-15T05:34:52.167Z,27.86
2022-09-15T05:35:58.193Z,27.94
2022-09-15T05:36:59.722Z,27.99
2022-09-15T05:38:01.227Z,27.93
2022-09-15T05:39:02.813Z,27.96
2022-09-15T05:40:08.355Z,28.03
2022-09-15T05:41:12.249Z,28.10
2022-09-15T05:42:13.762Z,28.10
2022-09-15T05:43:16.037Z,28.09
2022-09-15T05:44:17.805Z,27.96
2022-09-15T05:45:19.351Z,28.01
2022-09-15T05:46:20.989Z,28.10
2022-09-15T05:47:22.893Z,28.19
2022-09-15T05:48:25.101Z,28.18
2022-09-15T05:49:26.634Z,28.22
2022-09-15T05:50:28.192Z,28.32
2022-09-15T05:51:30.287Z,28.38
2022-09-15T05:52:31.871Z,28.44
2022-09-15T05:53:35.099Z,28.52
2022-09-15T05:54:36.632Z,28.58
2022-09-15T05:55:38.339Z,28.65
2022-09-15T05:56:39.849Z,28.71
2022-09-15T05:57:41.359Z,28.74
2022-09-15T05:58:45.640Z,28.73
2022-09-15T05:59:47.167Z,28.79
2022-09-15T06:00:48.843Z,28.84
2022-09-15T06:01:50.400Z,28.85
2022-09-15T06:02:51.986Z,28.86
2022-09-15T06:03:54.645Z,28.83
2022-09-15T06:04:56.206Z,28.85
2022-09-15T06:06:04.862Z,28.85
2022-09-15T06:07:06.695Z,28.83
2022-09-15T06:08:08.260Z,28.79
2022-09-15T06:09:09.769Z,28.70
2022-09-15T06:10:11.324Z,28.70
2022-09-15T06:11:18.462Z,28.63
2022-09-15T06:12:20.093Z,28.59
2022-09-15T06:13:21.627Z,28.53
2022-09-15T06:14:23.226Z,28.51
2022-09-15T06:15:25.044Z,28.50
2022-09-15T06:16:26.842Z,28.51
2022-09-15T06:17:31.334Z,28.46
2022-09-15T06:18:34.827Z,28.47
2022-09-15T06:19:36.477Z,28.48
2022-09-15T06:20:38.277Z,28.50
2022-09-15T06:21:39.887Z,28.49
2022-09-15T06:22:41.717Z,28.40
2022-09-15T06:23:47.281Z,28.25
2022-09-15T06:24:52.924Z,28.26
2022-09-15T06:25:54.486Z,28.23
2022-09-15T06:26:56.052Z,28.26
2022-09-15T06:27:58.064Z,28.29
2022-09-15T06:29:02.076Z,28.16
2022-09-15T06:30:03.808Z,27.92
2022-09-15T06:31:09.731Z,27.86
2022-09-15T06:32:11.376Z,27.77
2022-09-15T06:33:12.938Z,27.72
2022-09-15T06:34:14.567Z,27.73
2022-09-15T06:35:16.142Z,27.80
2022-09-15T06:36:19.175Z,27.79
2022-09-15T06:37:20.785Z,27.89
2022-09-15T06:38:22.405Z,27.85
2022-09-15T06:39:24.060Z,27.68
2022-09-15T06:40:25.941Z,27.71
2022-09-15T06:41:35.332Z,27.77
2022-09-15T06:42:49.031Z,27.45
2022-09-15T06:43:50.884Z,27.53
2022-09-15T06:44:52.893Z,27.66
2022-09-15T06:46:02.358Z,27.62
2022-09-15T06:47:04.362Z,27.71
2022-09-15T06:48:23.447Z,27.84
2022-09-15T06:49:27.395Z,27.83
2022-09-15T06:50:31.025Z,27.85
2022-09-15T06:51:35.413Z,27.86
2022-09-15T06:52:37.211Z,27.94
2022-09-15T06:53:39.902Z,28.01
2022-09-15T06:54:41.419Z,28.16
2022-09-15T06:55:42.961Z,28.28
2022-09-15T06:56:44.939Z,28.31
2022-09-15T06:57:46.502Z,28.29
2022-09-15T06:58:51.463Z,28.27
2022-09-15T06:59:53.001Z,28.35
2022-09-15T07:00:54.547Z,28.23
2022-09-15T07:01:56.246Z,28.35
2022-09-15T07:02:57.887Z,28.44
2022-09-15T07:04:01.308Z,28.52
2022-09-15T07:05:03.502Z,28.56
2022-09-15T07:06:06.158Z,28.56
2022-09-15T07:07:08.041Z,28.63
2022-09-15T07:08:09.599Z,28.67
2022-09-15T07:09:11.555Z,28.69
2022-09-15T07:10:13.095Z,28.73
2022-09-15T07:11:15.123Z,28.76
2022-09-15T07:12:16.662Z,28.81
2022-09-15T07:13:18.277Z,28.81
2022-09-15T07:14:19.871Z,28.84
2022-09-15T07:15:23.345Z,28.85
2022-09-15T07:16:27.971Z,28.87
2022-09-15T07:17:29.635Z,28.87
2022-09-15T07:18:32.024Z,28.89
2022-09-15T07:19:33.625Z,28.89
2022-09-15T07:20:39.026Z,28.90
2022-09-15T07:21:40.558Z,28.94
2022-09-15T07:22:42.069Z,28.95
2022-09-15T07:23:44.087Z,28.97
2022-09-15T07:24:45.667Z,28.97
2022-09-15T07:25:47.213Z,28.96
2022-09-15T07:26:48.741Z,28.96
2022-09-15T07:27:50.248Z,28.94
2022-09-15T07:28:55.594Z,28.92
2022-09-15T07:29:59.057Z,28.91
2022-09-15T07:31:00.759Z,28.95
2022-09-15T07:32:02.457Z,28.96
2022-09-15T07:33:04.155Z,28.98
2022-09-15T07:34:06.438Z,28.98
2022-09-15T07:35:08.490Z,28.98
2022-09-15T07:36:10.436Z,28.94
2022-09-15T07:37:11.930Z,28.83
2022-09-15T07:38:13.465Z,28.79
2022-09-15T07:39:15.021Z,28.76
2022-09-15T07:40:16.891Z,28.63
2022-09-15T07:41:21.115Z,28.70
2022-09-15T07:42:22.628Z,28.66
2022-09-15T07:43:24.344Z,28.57
2022-09-15T07:44:25.876Z,28.60
2022-09-15T07:45:27.449Z,28.63
2022-09-15T07:46:32.998Z,28.64
2022-09-15T07:47:34.607Z,28.68
2022-09-15T07:48:36.151Z,28.70
2022-09-15T07:49:37.711Z,28.65
2022-09-15T07:50:39.276Z,28.56
2022-09-15T07:51:40.864Z,28.62
2022-09-15T07:52:42.384Z,28.63
2022-09-15T07:53:45.890Z,28.42
2022-09-15T07:54:48.332Z,28.46
2022-09-15T07:55:53.693Z,28.50
2022-09-15T07:56:55.234Z,28.57
2022-09-15T07:57:58.494Z,28.58
2022-09-15T07:59:00.235Z,28.53
2022-09-15T08:00:02.278Z,28.51
2022-09-15T08:01:11.217Z,28.52
2022-09-15T08:02:17.299Z,28.58
2022-09-15T08:03:18.981Z,28.63
2022-09-15T08:04:20.512Z,28.65
2022-09-15T08:05:27.067Z,28.67
2022-09-15T08:06:28.928Z,28.68
2022-09-15T08:07:30.702Z,28.70
2022-09-15T08:08:32.308Z,28.70
2022-09-15T08:09:33.840Z,28.70
2022-09-15T08:10:39.291Z,28.67
2022-09-15T08:11:44.637Z,28.55
2022-09-15T08:12:46.156Z,28.51
2022-09-15T08:13:49.680Z,28.49
2022-09-15T08:14:51.266Z,28.43
2022-09-15T08:15:52.892Z,28.46
2022-09-15T08:16:54.448Z,28.51
2022-09-15T08:17:55.954Z,28.56
2022-09-15T08:18:57.714Z,28.38
2022-09-15T08:19:59.232Z,28.47
2022-09-15T08:21:05.672Z,28.29
2022-09-15T08:22:07.271Z,28.23
2022-09-15T08:23:11.252Z,28.13
2022-09-15T08:24:13.113Z,28.05
2022-09-15T08:25:14.917Z,28.21
2022-09-15T08:26:16.466Z,28.17
2022-09-15T08:27:18.046Z,28.23
2022-09-15T08:28:19.663Z,28.14
2022-09-15T08:29:22.024Z,28.05
2022-09-15T08:30:23.710Z,28.12
2022-09-15T08:31:25.436Z,28.22
2022-09-15T08:32:27.021Z,28.34
2022-09-15T08:33:28.945Z,28.39
2022-09-15T08:34:30.990Z,28.37
2022-09-15T08:35:33.895Z,28.36
2022-09-15T08:36:35.599Z,28.35
2022-09-15T08:37:37.155Z,28.43
2022-09-15T08:38:44.348Z,28.44
2022-09-15T08:39:46.682Z,28.57
2022-09-15T08:40:48.818Z,28.45
2022-09-15T08:41:53.592Z,28.55
2022-09-15T08:42:59.963Z,28.66
2022-09-15T08:44:11.300Z,28.63
2022-09-15T08:45:28.906Z,28.57
2022-09-15T08:46:43.124Z,28.69
2022-09-15T08:47:48.176Z,28.80
2022-09-15T08:49:02.741Z,28.87
2022-09-15T08:50:22.976Z,28.93
2022-09-15T08:51:32.236Z,28.91
2022-09-15T08:52:37.941Z,28.92
2022-09-15T08:53:45.761Z,28.93
2022-09-15T08:54:48.808Z,28.95
2022-09-15T08:55:54.329Z,28.93
2022-09-15T08:56:57.452Z,28.94
2022-09-15T08:57:59.133Z,28.87
2022-09-15T08:59:00.684Z,28.83
2022-09-15T09:00:02.498Z,28.82
2022-09-15T09:01:37.923Z,28.81
2022-09-15T09:03:16.854Z,28.84
2022-09-15T09:04:32.832Z,28.92
2022-09-15T09:05:49.779Z,28.93
2022-09-15T09:07:22.321Z,28.90
2022-09-15T09:08:45.508Z,28.91
2022-09-15T09:10:00.237Z,28.94
2022-09-15T09:11:07.755Z,28.95
2022-09-15T09:12:15.288Z,28.93
2022-09-15T09:13:36.732Z,28.98
2022-09-15T09:15:07.353Z,28.98
2022-09-15T09:16:42.762Z,28.96
2022-09-15T09:18:12.094Z,28.97
2022-09-15T09:19:38.207Z,28.98
2022-09-15T09:20:42.624Z,29.06
2022-09-15T09:21:51.851Z,29.07
2022-09-15T09:22:54.334Z,29.06
2022-09-15T09:24:01.850Z,29.03
2022-09-15T09:25:21.251Z,29.03
2022-09-15T09:26:30.325Z,29.07
2022-09-15T09:27:35.119Z,29.10
2022-09-15T09:28:46.438Z,29.12
2022-09-15T09:30:01.626Z,29.10
2022-09-15T09:31:07.935Z,29.14
2022-09-15T09:32:32.426Z,29.07
2022-09-15T09:33:56.035Z,29.03
2022-09-15T09:35:06.397Z,29.04
2022-09-15T09:36:11.014Z,29.05
2022-09-15T09:37:15.555Z,29.07
2022-09-15T09:38:26.237Z,29.10
2022-09-15T09:39:28.596Z,29.14
2022-09-15T09:40:32.781Z,29.16
2022-09-15T09:41:37.560Z,29.16
2022-09-15T09:42:39.353Z,29.15
2022-09-15T09:43:44.085Z,29.15
2022-09-15T09:44:47.123Z,29.16
2022-09-15T09:45:48.783Z,29.17
2022-09-15T09:46:50.436Z,29.20
2022-09-15T09:47:53.026Z,29.24
2022-09-15T09:49:16.933Z,29.26
2022-09-15T09:50:39.189Z,29.28
2022-09-15T09:52:03.292Z,29.33
2022-09-15T09:53:23.644Z,29.32
2022-09-15T09:54:29.298Z,29.32
2022-09-15T09:55:31.020Z,29.32
2022-09-15T09:56:33.474Z,29.34
2022-09-15T09:57:40.005Z,29.32
2022-09-15T09:58:42.695Z,29.35
2022-09-15T09:59:49.479Z,29.33
2022-09-15T10:00:52.792Z,29.32
2022-09-15T10:02:15.912Z,29.29
2022-09-15T10:03:28.152Z,29.34
2022-09-15T10:04:33.719Z,29.37
2022-09-15T10:05:35.390Z,29.37
2022-09-15T10:06:37.035Z,29.37
2022-09-15T10:07:45.827Z,29.34
2022-09-15T10:09:08.575Z,29.34
2022-09-15T10:10:21.464Z,29.31
2022-09-15T10:11:39.945Z,29.36
2022-09-15T10:12:42.020Z,29.48
2022-09-15T10:13:55.712Z,29.47
2022-09-15T10:15:00.898Z,29.47
2022-09-15T10:16:05.757Z,29.45
2022-09-15T10:17:13.916Z,29.41
2022-09-15T10:18:26.788Z,29.39
2022-09-15T10:19:32.383Z,29.42
2022-09-15T10:20:51.412Z,29.37
2022-09-15T10:21:53.464Z,29.45
2022-09-15T10:23:31.805Z,29.43
2022-09-15T10:24:38.495Z,29.46
2022-09-15T10:25:57.983Z,29.45
2022-09-15T10:27:31.994Z,29.42
2022-09-15T10:28:33.596Z,29.49
2022-09-15T10:29:39.757Z,29.46
2022-09-15T10:30:57.584Z,29.44
2022-09-15T10:32:16.515Z,29.42
2022-09-15T10:33:25.268Z,29.48
2022-09-15T10:34:30.619Z,29.52
2022-09-15T10:35:33.166Z,29.52
2022-09-15T10:36:34.767Z,29.53
2022-09-15T10:37:54.616Z,29.51
2022-09-15T10:39:14.850Z,29.55
2022-09-15T10:40:55.760Z,29.52
2022-09-15T10:42:19.480Z,29.52
2022-09-15T10:43:42.266Z,29.56
2022-09-15T10:45:33.820Z,29.53
2022-09-15T10:47:04.706Z,29.56
2022-09-15T10:48:22.258Z,29.57
2022-09-15T10:49:48.518Z,29.57
2022-09-15T10:51:03.985Z,29.58
2022-09-15T10:52:11.976Z,29.60
2022-09-15T10:53:20.251Z,29.60
2022-09-15T10:54:41.246Z,29.60
2022-09-15T10:56:01.211Z,29.60
2022-09-15T10:57:41.524Z,29.64
2022-09-15T10:58:45.637Z,29.69
2022-09-15T11:00:10.882Z,29.61
2022-09-15T11:01:54.119Z,29.62
2022-09-15T11:02:55.649Z,29.67
2022-09-15T11:04:00.327Z,29.68
2022-09-15T11:05:34.412Z,29.66
2022-09-15T11:07:14.014Z,29.67
2022-09-15T11:08:41.781Z,29.69
2022-09-15T11:09:53.021Z,29.72
2022-09-15T11:11:00.483Z,29.75
2022-09-15T11:12:04.839Z,29.77
2022-09-15T11:13:17.496Z,29.79
2022-09-15T11:14:50.473Z,29.75
2022-09-15T11:16:12.254Z,29.79
2022-09-15T11:17:47.424Z,29.78
2022-09-15T11:19:10.098Z,29.79
2022-09-15T11:20:25.319Z,29.79
2022-09-15T11:21:34.460Z,29.79
2022-09-15T11:22:49.469Z,29.77
2022-09-15T11:24:22.072Z,29.76
2022-09-15T11:25:28.273Z,29.82
2022-09-15T11:26:35.404Z,29.82
2022-09-15T11:27:42.593Z,29.82
2022-09-15T11:28:48.647Z,29.84
2022-09-15T11:30:21.719Z,29.82
2022-09-15T11:31:30.711Z,29.85
2022-09-15T11:32:48.416Z,29.86
2022-09-15T11:33:58.613Z,29.90
2022-09-15T11:35:39.040Z,29.86
2022-09-15T11:36:53.013Z,29.90
2022-09-15T11:38:00.548Z,29.91
2022-09-15T11:39:19.535Z,29.91
2022-09-15T11:40:28.703Z,30.01
2022-09-15T11:41:43.991Z,29.97
2022-09-15T11:43:17.679Z,29.97
2022-09-15T11:44:32.488Z,30.03
2022-09-15T11:45:40.692Z,30.04
2022-09-15T11:47:07.593Z,29.99
2022-09-15T11:48:21.699Z,30.02
2022-09-15T11:49:37.034Z,30.01
2022-09-15T11:50:45.228Z,30.04
2022-09-15T11:51:57.115Z,30.03
2022-09-15T11:53:16.759Z,30.05
2022-09-15T11:54:34.819Z,30.06
2022-09-15T11:56:07.292Z,30.04
2022-09-15T11:57:23.392Z,30.04
2022-09-15T11:58:46.426Z,30.03
2022-09-15T11:59:57.771Z,30.06
2022-09-15T12:01:14.146Z,30.04
2022-09-15T12:02:30.707Z,30.04
2022-09-15T12:03:42.329Z,30.04
2022-09-15T12:04:58.660Z,30.02
2022-09-15T12:06:07.133Z,30.04
2022-09-15T12:07:23.902Z,30.04
2022-09-15T12:08:43.468Z,30.06
2022-09-15T12:09:45.548Z,30.10
2022-09-15T12:10:52.427Z,30.06
2022-09-15T12:12:01.862Z,30.05
2022-09-15T12:13:04.876Z,30.08
2022-09-15T12:14:12.225Z,30.07
2022-09-15T12:15:17.497Z,30.05
2022-09-15T12:16:20.903Z,30.09
2022-09-15T12:17:41.039Z,30.04
2022-09-15T12:18:56.757Z,30.05
2022-09-15T12:20:17.214Z,30.06
2022-09-15T12:21:39.346Z,30.11
2022-09-15T12:22:54.951Z,30.08
2022-09-15T12:24:03.692Z,30.09
2022-09-15T12:25:16.931Z,30.06
2022-09-15T12:26:23.710Z,30.07
2022-09-15T12:27:25.260Z,30.10
2022-09-15T12:28:38.712Z,30.07
2022-09-15T12:29:54.718Z,30.09
2022-09-15T12:31:13.212Z,30.09
2022-09-15T12:32:24.661Z,30.10
2022-09-15T12:33:46.022Z,30.08
2022-09-15T12:35:16.436Z,30.10
2022-09-15T12:36:44.682Z,30.11
2022-09-15T12:37:53.283Z,30.14
2022-09-15T12:38:54.961Z,30.18
2022-09-15T12:39:56.735Z,30.17
2022-09-15T12:40:59.594Z,30.16
2022-09-15T12:42:01.077Z,30.18
2022-09-15T12:43:23.579Z,30.15
2022-09-15T12:44:34.163Z,30.17
2022-09-15T12:45:36.270Z,30.22
2022-09-15T12:46:38.083Z,30.23
2022-09-15T12:47:49.961Z,30.19
2022-09-15T12:48:54.040Z,30.23
2022-09-15T12:50:01.664Z,30.23
2022-09-15T12:51:05.850Z,30.23
2022-09-15T12:52:09.958Z,30.24
2022-09-15T12:53:22.161Z,30.20
2022-09-15T12:54:28.916Z,30.23
2022-09-15T12:55:35.983Z,30.25
2022-09-15T12:56:37.831Z,30.28
2022-09-15T12:57:39.424Z,30.28
2022-09-15T12:58:46.095Z,30.26
2022-09-15T12:59:47.729Z,30.28
2022-09-15T13:01:16.706Z,30.29
2022-09-15T13:02:44.623Z,30.26
2022-09-15T13:03:46.291Z,30.34
2022-09-15T13:04:58.064Z,30.31
2022-09-15T13:06:19.877Z,30.29
2022-09-15T13:07:33.294Z,30.29
2022-09-15T13:08:36.151Z,30.33
2022-09-15T13:09:46.288Z,30.31
2022-09-15T13:11:38.367Z,30.31
2022-09-15T13:12:48.461Z,30.35
2022-09-15T13:13:51.829Z,30.35
2022-09-15T13:14:56.796Z,30.37
2022-09-15T13:16:01.141Z,30.38
2022-09-15T13:17:13.228Z,30.37
2022-09-15T13:18:17.180Z,30.39
2022-09-15T13:19:35.974Z,30.37
2022-09-15T13:20:41.256Z,30.41
2022-09-15T13:21:51.481Z,30.39
2022-09-15T13:22:56.381Z,30.43
2022-09-15T13:23:58.250Z,30.43
2022-09-15T13:25:16.739Z,30.40
2022-09-15T13:26:24.082Z,30.44
2022-09-15T13:27:36.363Z,30.44
2022-09-15T13:28:38.803Z,30.48
2022-09-15T13:29:54.840Z,30.45
2022-09-15T13:31:02.978Z,30.46
2022-09-15T13:32:15.404Z,30.50
2022-09-15T13:35:38.899Z,30.54
2022-09-15T13:38:39.913Z,30.45
2022-09-15T13:40:21.483Z,30.46
2022-09-15T13:41:33.214Z,30.48
2022-09-15T13:43:13.460Z,30.46
2022-09-15T13:44:33.232Z,30.53
2022-09-15T13:45:53.850Z,30.53
2022-09-15T13:46:58.320Z,30.59
2022-09-15T13:48:11.006Z,30.57
2022-09-15T13:49:24.474Z,30.59
2022-09-15T13:50:40.448Z,30.53
2022-09-15T13:51:48.359Z,30.59
2022-09-15T13:53:00.657Z,30.57
2022-09-15T13:54:08.277Z,30.59
2022-09-15T13:55:27.725Z,30.58
2022-09-15T13:56:32.812Z,30.61
2022-09-15T13:59:14.239Z,30.63
2022-09-15T14:00:23.271Z,30.63
2022-09-15T14:01:25.831Z,30.66
2022-09-15T14:02:27.555Z,30.65
2022-09-15T14:03:50.466Z,30.59
2022-09-15T14:04:52.105Z,30.63
2022-09-15T14:05:55.535Z,30.63
2022-09-15T14:07:01.360Z,30.61
2022-09-15T14:08:32.438Z,30.58
2022-09-15T14:09:44.662Z,30.62
2022-09-15T14:10:53.885Z,30.61
2022-09-15T14:12:02.553Z,30.62
2022-09-15T14:13:04.233Z,30.65
2022-09-15T14:14:11.545Z,30.62
2022-09-15T14:15:18.052Z,30.62
2022-09-15T14:16:29.388Z,30.62
2022-09-15T14:17:31.971Z,30.65
2022-09-15T14:18:43.006Z,30.61
2022-09-15T14:19:44.575Z,30.65
2022-09-15T14:20:59.055Z,30.63
2022-09-15T14:22:03.146Z,30.65
2022-09-15T14:23:16.164Z,30.63
2022-09-15T14:24:21.666Z,30.67
2022-09-15T14:25:24.191Z,30.70
2022-09-15T14:26:28.982Z,30.70
2022-09-15T14:27:35.239Z,30.70
2022-09-15T14:28:36.828Z,30.73
2022-09-15T14:29:42.823Z,30.74
2022-09-15T14:30:47.820Z,30.74
2022-09-15T14:31:49.493Z,30.77
2022-09-15T14:32:54.330Z,30.76
2022-09-15T14:33:56.373Z,30.78